Página principal
METAR-TAF:

METAR-TAF

Aeroportos :

Aeroporto Internacional Sir Seewoosagur Ramgoolam

Maurícia, Maurícia

latitude: 20-26S, longitude: 057-40E, altura: 55 m

Observação actual do tempo

O boletim foi feito há 38 minutos, às 22:00 UTC
Vento 10 kt de este
Temperatura 25°C
Humidade 79%
Pressão 1017 hPa
Visibilidade 10 km ou mais
Nuvens dispersasa uma altura de 1700 ft

METAR: FIMP 142200Z 09010KT 9999 SCT017 25/21 Q1017

Hora: 02:38 (22:38 UTC)

Previsão

O boletim foi feito há 5 horas e 23 minutos, às 17:15 UTC
Previsão válida de 14 às 18 UTC a 16 às 00 UTC
Vento 10 kt de este
Visibilidade 10 km ou mais
Nuvens dispersasa uma altura de 1700 ft
Probabilidade 30% :
Temporariamente
de 15 às 00 UTC a 15 às 06 UTC
Visibilidade: 7000 m
Poucas nuvensa uma altura de 1000 ft
Nuvens fragmentadasa uma altura de 1600 ft
aguaceiros fracos de chuva

TAF: FIMP 141715Z 1418/1600 10010KT 9999 SCT017 PROB30 TEMPO 1500/1506 7000 -SHRA FEW010 BKN016

Observações e previsões do tempo de mais de 4000 aeroportos (mensagens METAR e TAF).

As estações disponíveis são os pontos amarelos e vermelhos sobre o mapa.

Mova o rato sobre o mapa para ver o nome da estação.

Depois clique no ponto para visualizar as observações e previsões meteorológicas.

Para alterar o mapa : clique nos botões verdes com uma cruz preta para aumentar o zoom; no botão verde com uma pitada de zoom; ou nas setas verdes para mapas adjacentes.


METAR-TAF: